sensor_id;sensor_type;location;lat;lon;timestamp;P1;durP1;ratioP1;P2;durP2;ratioP2
64615;SDS011;51027;42.162;24.754;2022-12-08T00:00:35;37.33;;;16.17;;
64615;SDS011;51027;42.162;24.754;2022-12-08T00:03:01;34.15;;;17.92;;
64615;SDS011;51027;42.162;24.754;2022-12-08T00:05:26;37.88;;;16.77;;
64615;SDS011;51027;42.162;24.754;2022-12-08T00:08:10;33.88;;;15.52;;
64615;SDS011;51027;42.162;24.754;2022-12-08T00:10:54;35.42;;;15.85;;
64615;SDS011;51027;42.162;24.754;2022-12-08T00:13:20;34.15;;;15.25;;
64615;SDS011;51027;42.162;24.754;2022-12-08T00:15:45;35.97;;;16.67;;
64615;SDS011;51027;42.162;24.754;2022-12-08T00:18:11;31.02;;;14.95;;
64615;SDS011;51027;42.162;24.754;2022-12-08T00:20:36;35.92;;;14.23;;
64615;SDS011;51027;42.162;24.754;2022-12-08T00:23:02;30.48;;;14.57;;
64615;SDS011;51027;42.162;24.754;2022-12-08T00:25:28;34.88;;;14.77;;
64615;SDS011;51027;42.162;24.754;2022-12-08T00:27:54;35.42;;;14.45;;
64615;SDS011;51027;42.162;24.754;2022-12-08T00:30:19;32.40;;;14.43;;
64615;SDS011;51027;42.162;24.754;2022-12-08T00:32:45;33.78;;;14.13;;
64615;SDS011;51027;42.162;24.754;2022-12-08T00:35:10;30.23;;;14.82;;
64615;SDS011;51027;42.162;24.754;2022-12-08T00:37:36;29.58;;;13.55;;
64615;SDS011;51027;42.162;24.754;2022-12-08T00:40:01;31.27;;;14.35;;
64615;SDS011;51027;42.162;24.754;2022-12-08T00:42:27;32.40;;;13.98;;
64615;SDS011;51027;42.162;24.754;2022-12-08T00:44:53;33.20;;;13.57;;
64615;SDS011;51027;42.162;24.754;2022-12-08T00:47:18;29.25;;;13.60;;
64615;SDS011;51027;42.162;24.754;2022-12-08T00:49:44;35.25;;;14.30;;
64615;SDS011;51027;42.162;24.754;2022-12-08T00:52:09;32.25;;;14.63;;
64615;SDS011;51027;42.162;24.754;2022-12-08T00:54:36;30.77;;;13.95;;
64615;SDS011;51027;42.162;24.754;2022-12-08T00:57:02;29.30;;;13.40;;
64615;SDS011;51027;42.162;24.754;2022-12-08T00:59:30;35.45;;;15.05;;
64615;SDS011;51027;42.162;24.754;2022-12-08T01:01:56;31.17;;;14.30;;
64615;SDS011;51027;42.162;24.754;2022-12-08T01:04:21;30.73;;;13.25;;
64615;SDS011;51027;42.162;24.754;2022-12-08T01:06:47;31.42;;;13.68;;
64615;SDS011;51027;42.162;24.754;2022-12-08T01:09:16;34.13;;;13.57;;
64615;SDS011;51027;42.162;24.754;2022-12-08T01:11:43;29.58;;;12.02;;
64615;SDS011;51027;42.162;24.754;2022-12-08T01:14:09;31.35;;;13.52;;
64615;SDS011;51027;42.162;24.754;2022-12-08T01:16:34;35.83;;;14.00;;
64615;SDS011;51027;42.162;24.754;2022-12-08T01:19:01;31.27;;;14.32;;
64615;SDS011;51027;42.162;24.754;2022-12-08T01:21:27;28.30;;;12.98;;
64615;SDS011;51027;42.162;24.754;2022-12-08T01:23:53;29.98;;;12.63;;
64615;SDS011;51027;42.162;24.754;2022-12-08T01:26:19;30.42;;;13.63;;
64615;SDS011;51027;42.162;24.754;2022-12-08T01:28:46;33.15;;;14.75;;
64615;SDS011;51027;42.162;24.754;2022-12-08T01:31:13;27.52;;;12.25;;
64615;SDS011;51027;42.162;24.754;2022-12-08T01:33:41;34.38;;;13.50;;
64615;SDS011;51027;42.162;24.754;2022-12-08T01:36:30;28.67;;;13.27;;
64615;SDS011;51027;42.162;24.754;2022-12-08T01:38:58;33.17;;;12.90;;
64615;SDS011;51027;42.162;24.754;2022-12-08T01:41:26;30.73;;;13.48;;
64615;SDS011;51027;42.162;24.754;2022-12-08T01:43:59;30.52;;;13.30;;
64615;SDS011;51027;42.162;24.754;2022-12-08T01:46:32;29.15;;;12.70;;
64615;SDS011;51027;42.162;24.754;2022-12-08T01:49:15;29.88;;;12.95;;
64615;SDS011;51027;42.162;24.754;2022-12-08T01:54:25;33.40;;;13.15;;
64615;SDS011;51027;42.162;24.754;2022-12-08T01:57:06;28.85;;;12.10;;
64615;SDS011;51027;42.162;24.754;2022-12-08T01:59:37;29.58;;;12.38;;
64615;SDS011;51027;42.162;24.754;2022-12-08T02:02:09;30.85;;;12.70;;
64615;SDS011;51027;42.162;24.754;2022-12-08T02:04:36;29.70;;;12.77;;
64615;SDS011;51027;42.162;24.754;2022-12-08T02:07:01;27.25;;;12.00;;
64615;SDS011;51027;42.162;24.754;2022-12-08T02:09:32;32.00;;;13.40;;
64615;SDS011;51027;42.162;24.754;2022-12-08T02:11:58;27.63;;;11.80;;
64615;SDS011;51027;42.162;24.754;2022-12-08T02:14:25;28.88;;;12.43;;
64615;SDS011;51027;42.162;24.754;2022-12-08T02:22:35;31.17;;;11.57;;
64615;SDS011;51027;42.162;24.754;2022-12-08T02:28:14;29.30;;;13.15;;
64615;SDS011;51027;42.162;24.754;2022-12-08T02:31:13;28.10;;;12.73;;
64615;SDS011;51027;42.162;24.754;2022-12-08T02:38:53;31.17;;;12.52;;
64615;SDS011;51027;42.162;24.754;2022-12-08T02:44:05;25.40;;;11.57;;
64615;SDS011;51027;42.162;24.754;2022-12-08T02:46:39;29.30;;;11.48;;
64615;SDS011;51027;42.162;24.754;2022-12-08T02:49:10;27.38;;;11.75;;
64615;SDS011;51027;42.162;24.754;2022-12-08T02:51:39;30.48;;;13.35;;
64615;SDS011;51027;42.162;24.754;2022-12-08T02:54:04;30.50;;;12.23;;
64615;SDS011;51027;42.162;24.754;2022-12-08T03:04:57;26.60;;;11.18;;
64615;SDS011;51027;42.162;24.754;2022-12-08T03:07:35;25.65;;;10.65;;
64615;SDS011;51027;42.162;24.754;2022-12-08T03:12:57;27.73;;;11.77;;
64615;SDS011;51027;42.162;24.754;2022-12-08T03:15:30;30.83;;;11.93;;
64615;SDS011;51027;42.162;24.754;2022-12-08T03:17:57;30.50;;;12.95;;
64615;SDS011;51027;42.162;24.754;2022-12-08T03:20:25;27.05;;;11.38;;
64615;SDS011;51027;42.162;24.754;2022-12-08T03:22:55;25.67;;;10.80;;
64615;SDS011;51027;42.162;24.754;2022-12-08T03:25:23;27.50;;;11.85;;
64615;SDS011;51027;42.162;24.754;2022-12-08T03:27:50;27.77;;;11.18;;
64615;SDS011;51027;42.162;24.754;2022-12-08T03:30:17;32.17;;;12.75;;
64615;SDS011;51027;42.162;24.754;2022-12-08T03:32:47;30.17;;;11.98;;
64615;SDS011;51027;42.162;24.754;2022-12-08T03:35:20;29.55;;;12.45;;
64615;SDS011;51027;42.162;24.754;2022-12-08T03:40:15;24.95;;;10.93;;
64615;SDS011;51027;42.162;24.754;2022-12-08T03:42:42;27.70;;;11.55;;
64615;SDS011;51027;42.162;24.754;2022-12-08T03:45:07;28.92;;;12.82;;
64615;SDS011;51027;42.162;24.754;2022-12-08T03:47:33;29.35;;;12.20;;
64615;SDS011;51027;42.162;24.754;2022-12-08T03:49:58;30.13;;;11.85;;
64615;SDS011;51027;42.162;24.754;2022-12-08T03:52:24;30.25;;;11.82;;
64615;SDS011;51027;42.162;24.754;2022-12-08T03:54:49;27.55;;;11.48;;
64615;SDS011;51027;42.162;24.754;2022-12-08T03:57:15;29.52;;;12.32;;
64615;SDS011;51027;42.162;24.754;2022-12-08T03:59:40;31.90;;;12.82;;
64615;SDS011;51027;42.162;24.754;2022-12-08T04:02:05;30.83;;;11.52;;
64615;SDS011;51027;42.162;24.754;2022-12-08T04:04:31;27.45;;;12.63;;
64615;SDS011;51027;42.162;24.754;2022-12-08T04:06:56;32.30;;;13.32;;
64615;SDS011;51027;42.162;24.754;2022-12-08T04:09:22;32.33;;;12.75;;
64615;SDS011;51027;42.162;24.754;2022-12-08T04:11:47;29.63;;;12.18;;
64615;SDS011;51027;42.162;24.754;2022-12-08T04:14:13;26.95;;;10.82;;
64615;SDS011;51027;42.162;24.754;2022-12-08T04:16:38;26.00;;;10.07;;
64615;SDS011;51027;42.162;24.754;2022-12-08T04:19:04;27.45;;;11.65;;
64615;SDS011;51027;42.162;24.754;2022-12-08T04:21:29;25.00;;;10.27;;
64615;SDS011;51027;42.162;24.754;2022-12-08T04:23:55;27.88;;;11.50;;
64615;SDS011;51027;42.162;24.754;2022-12-08T04:26:20;27.83;;;12.65;;
64615;SDS011;51027;42.162;24.754;2022-12-08T04:28:46;26.13;;;11.10;;
64615;SDS011;51027;42.162;24.754;2022-12-08T04:31:11;27.13;;;10.77;;
64615;SDS011;51027;42.162;24.754;2022-12-08T04:33:37;28.58;;;10.38;;
64615;SDS011;51027;42.162;24.754;2022-12-08T04:36:03;30.48;;;10.95;;
64615;SDS011;51027;42.162;24.754;2022-12-08T04:38:29;24.92;;;10.85;;
64615;SDS011;51027;42.162;24.754;2022-12-08T04:40:54;25.85;;;10.80;;
64615;SDS011;51027;42.162;24.754;2022-12-08T04:43:20;29.75;;;12.00;;
64615;SDS011;51027;42.162;24.754;2022-12-08T04:45:45;26.77;;;11.10;;
64615;SDS011;51027;42.162;24.754;2022-12-08T04:48:11;31.25;;;11.20;;
64615;SDS011;51027;42.162;24.754;2022-12-08T04:50:38;28.55;;;12.40;;
64615;SDS011;51027;42.162;24.754;2022-12-08T04:53:06;29.90;;;11.57;;
64615;SDS011;51027;42.162;24.754;2022-12-08T04:55:32;28.17;;;10.93;;
64615;SDS011;51027;42.162;24.754;2022-12-08T04:57:58;27.42;;;10.43;;
64615;SDS011;51027;42.162;24.754;2022-12-08T05:00:23;30.17;;;10.73;;
64615;SDS011;51027;42.162;24.754;2022-12-08T05:02:48;28.55;;;11.80;;
64615;SDS011;51027;42.162;24.754;2022-12-08T05:05:14;28.02;;;10.32;;
64615;SDS011;51027;42.162;24.754;2022-12-08T05:07:39;28.05;;;11.32;;
64615;SDS011;51027;42.162;24.754;2022-12-08T05:10:05;30.20;;;14.38;;
64615;SDS011;51027;42.162;24.754;2022-12-08T05:12:31;34.08;;;14.93;;
64615;SDS011;51027;42.162;24.754;2022-12-08T05:14:57;37.22;;;13.55;;
64615;SDS011;51027;42.162;24.754;2022-12-08T05:17:22;28.83;;;13.60;;
64615;SDS011;51027;42.162;24.754;2022-12-08T05:19:48;34.47;;;14.15;;
64615;SDS011;51027;42.162;24.754;2022-12-08T05:22:13;31.35;;;14.55;;
64615;SDS011;51027;42.162;24.754;2022-12-08T05:24:38;29.33;;;12.70;;
64615;SDS011;51027;42.162;24.754;2022-12-08T05:27:04;30.77;;;13.07;;
64615;SDS011;51027;42.162;24.754;2022-12-08T05:29:29;33.13;;;14.85;;
64615;SDS011;51027;42.162;24.754;2022-12-08T05:31:55;35.45;;;15.85;;
64615;SDS011;51027;42.162;24.754;2022-12-08T05:34:20;37.65;;;16.30;;
64615;SDS011;51027;42.162;24.754;2022-12-08T05:36:46;34.10;;;16.08;;
64615;SDS011;51027;42.162;24.754;2022-12-08T05:39:12;38.40;;;17.55;;
64615;SDS011;51027;42.162;24.754;2022-12-08T05:41:39;33.75;;;17.55;;
64615;SDS011;51027;42.162;24.754;2022-12-08T05:44:05;39.10;;;17.63;;
64615;SDS011;51027;42.162;24.754;2022-12-08T05:46:31;44.20;;;17.63;;
64615;SDS011;51027;42.162;24.754;2022-12-08T05:49:00;32.95;;;16.33;;
64615;SDS011;51027;42.162;24.754;2022-12-08T05:51:27;32.85;;;13.23;;
64615;SDS011;51027;42.162;24.754;2022-12-08T05:53:53;26.25;;;11.23;;
64615;SDS011;51027;42.162;24.754;2022-12-08T05:56:19;30.67;;;12.50;;
64615;SDS011;51027;42.162;24.754;2022-12-08T05:58:46;30.15;;;12.50;;
64615;SDS011;51027;42.162;24.754;2022-12-08T06:03:51;28.38;;;11.90;;
64615;SDS011;51027;42.162;24.754;2022-12-08T06:06:17;35.42;;;13.30;;
64615;SDS011;51027;42.162;24.754;2022-12-08T06:08:43;28.02;;;12.27;;
64615;SDS011;51027;42.162;24.754;2022-12-08T06:11:08;27.33;;;13.18;;
64615;SDS011;51027;42.162;24.754;2022-12-08T06:13:34;28.67;;;12.65;;
64615;SDS011;51027;42.162;24.754;2022-12-08T06:16:04;30.48;;;13.15;;
64615;SDS011;51027;42.162;24.754;2022-12-08T06:18:30;30.70;;;13.50;;
64615;SDS011;51027;42.162;24.754;2022-12-08T06:21:05;27.98;;;14.32;;
64615;SDS011;51027;42.162;24.754;2022-12-08T06:23:32;31.80;;;13.23;;
64615;SDS011;51027;42.162;24.754;2022-12-08T06:26:02;31.48;;;11.82;;
64615;SDS011;51027;42.162;24.754;2022-12-08T06:28:30;28.98;;;12.95;;
64615;SDS011;51027;42.162;24.754;2022-12-08T06:30:56;32.85;;;12.68;;
64615;SDS011;51027;42.162;24.754;2022-12-08T06:33:21;34.42;;;13.32;;
64615;SDS011;51027;42.162;24.754;2022-12-08T06:35:47;30.35;;;13.52;;
64615;SDS011;51027;42.162;24.754;2022-12-08T06:38:12;33.80;;;14.23;;
64615;SDS011;51027;42.162;24.754;2022-12-08T06:40:38;34.03;;;12.85;;
64615;SDS011;51027;42.162;24.754;2022-12-08T06:43:03;31.27;;;13.60;;
64615;SDS011;51027;42.162;24.754;2022-12-08T06:45:28;32.90;;;14.98;;
64615;SDS011;51027;42.162;24.754;2022-12-08T06:47:54;33.75;;;14.52;;
64615;SDS011;51027;42.162;24.754;2022-12-08T06:50:19;30.75;;;14.23;;
64615;SDS011;51027;42.162;24.754;2022-12-08T06:52:45;33.30;;;14.52;;
64615;SDS011;51027;42.162;24.754;2022-12-08T06:55:10;34.05;;;13.68;;
64615;SDS011;51027;42.162;24.754;2022-12-08T06:57:36;34.38;;;13.65;;
64615;SDS011;51027;42.162;24.754;2022-12-08T07:00:02;30.98;;;14.18;;
64615;SDS011;51027;42.162;24.754;2022-12-08T07:02:29;29.38;;;13.27;;
64615;SDS011;51027;42.162;24.754;2022-12-08T07:04:54;32.20;;;13.02;;
64615;SDS011;51027;42.162;24.754;2022-12-08T07:07:20;39.22;;;18.88;;
64615;SDS011;51027;42.162;24.754;2022-12-08T07:09:45;40.55;;;23.02;;
64615;SDS011;51027;42.162;24.754;2022-12-08T07:12:11;52.85;;;32.58;;
64615;SDS011;51027;42.162;24.754;2022-12-08T07:14:36;47.55;;;28.77;;
64615;SDS011;51027;42.162;24.754;2022-12-08T07:17:01;46.00;;;22.98;;
64615;SDS011;51027;42.162;24.754;2022-12-08T07:19:27;46.25;;;21.30;;
64615;SDS011;51027;42.162;24.754;2022-12-08T07:21:52;44.63;;;20.45;;
64615;SDS011;51027;42.162;24.754;2022-12-08T07:24:18;44.33;;;22.15;;
64615;SDS011;51027;42.162;24.754;2022-12-08T07:26:43;40.15;;;19.33;;
64615;SDS011;51027;42.162;24.754;2022-12-08T07:29:09;43.72;;;19.90;;
64615;SDS011;51027;42.162;24.754;2022-12-08T07:31:35;39.55;;;19.65;;
64615;SDS011;51027;42.162;24.754;2022-12-08T07:34:00;40.28;;;18.42;;
64615;SDS011;51027;42.162;24.754;2022-12-08T07:36:25;35.13;;;16.20;;
64615;SDS011;51027;42.162;24.754;2022-12-08T07:38:51;40.70;;;17.73;;
64615;SDS011;51027;42.162;24.754;2022-12-08T07:41:19;36.50;;;17.23;;
64615;SDS011;51027;42.162;24.754;2022-12-08T07:43:47;33.70;;;14.40;;
64615;SDS011;51027;42.162;24.754;2022-12-08T07:46:13;29.48;;;14.95;;
64615;SDS011;51027;42.162;24.754;2022-12-08T07:48:42;33.30;;;14.82;;
64615;SDS011;51027;42.162;24.754;2022-12-08T07:51:09;33.30;;;15.18;;
64615;SDS011;51027;42.162;24.754;2022-12-08T07:53:37;31.02;;;15.50;;
64615;SDS011;51027;42.162;24.754;2022-12-08T07:58:32;41.03;;;16.45;;
64615;SDS011;51027;42.162;24.754;2022-12-08T08:00:58;33.10;;;15.30;;
64615;SDS011;51027;42.162;24.754;2022-12-08T08:03:24;34.58;;;16.02;;
64615;SDS011;51027;42.162;24.754;2022-12-08T08:05:49;32.47;;;15.32;;
64615;SDS011;51027;42.162;24.754;2022-12-08T08:08:15;40.70;;;16.17;;
64615;SDS011;51027;42.162;24.754;2022-12-08T08:10:41;36.92;;;15.48;;
64615;SDS011;51027;42.162;24.754;2022-12-08T08:13:07;32.78;;;14.73;;
64615;SDS011;51027;42.162;24.754;2022-12-08T08:15:33;38.22;;;15.82;;
64615;SDS011;51027;42.162;24.754;2022-12-08T08:17:58;35.00;;;15.25;;
64615;SDS011;51027;42.162;24.754;2022-12-08T08:20:24;40.38;;;16.08;;
64615;SDS011;51027;42.162;24.754;2022-12-08T08:22:49;41.00;;;16.50;;
64615;SDS011;51027;42.162;24.754;2022-12-08T08:25:16;38.08;;;17.15;;
64615;SDS011;51027;42.162;24.754;2022-12-08T08:27:43;40.78;;;19.45;;
64615;SDS011;51027;42.162;24.754;2022-12-08T08:30:10;34.70;;;17.17;;
64615;SDS011;51027;42.162;24.754;2022-12-08T08:32:37;34.60;;;15.90;;
64615;SDS011;51027;42.162;24.754;2022-12-08T08:35:02;33.50;;;14.80;;
64615;SDS011;51027;42.162;24.754;2022-12-08T08:37:29;41.40;;;16.23;;
64615;SDS011;51027;42.162;24.754;2022-12-08T08:39:54;32.35;;;15.73;;
64615;SDS011;51027;42.162;24.754;2022-12-08T08:42:20;34.00;;;17.00;;
64615;SDS011;51027;42.162;24.754;2022-12-08T08:44:46;32.55;;;14.80;;
64615;SDS011;51027;42.162;24.754;2022-12-08T08:47:12;33.42;;;15.68;;
64615;SDS011;51027;42.162;24.754;2022-12-08T08:49:37;35.85;;;15.45;;
64615;SDS011;51027;42.162;24.754;2022-12-08T08:52:03;37.70;;;15.25;;
64615;SDS011;51027;42.162;24.754;2022-12-08T08:54:29;37.25;;;17.42;;
64615;SDS011;51027;42.162;24.754;2022-12-08T08:56:58;28.50;;;14.38;;
64615;SDS011;51027;42.162;24.754;2022-12-08T08:59:25;31.55;;;15.93;;
64615;SDS011;51027;42.162;24.754;2022-12-08T09:01:52;35.63;;;16.55;;
64615;SDS011;51027;42.162;24.754;2022-12-08T09:04:18;37.63;;;16.27;;
64615;SDS011;51027;42.162;24.754;2022-12-08T09:06:45;32.05;;;14.93;;
64615;SDS011;51027;42.162;24.754;2022-12-08T09:09:12;35.67;;;16.00;;
64615;SDS011;51027;42.162;24.754;2022-12-08T09:11:37;35.45;;;15.30;;
64615;SDS011;51027;42.162;24.754;2022-12-08T09:14:03;35.25;;;15.93;;
64615;SDS011;51027;42.162;24.754;2022-12-08T09:16:28;34.05;;;16.02;;
64615;SDS011;51027;42.162;24.754;2022-12-08T09:18:54;35.90;;;16.85;;
64615;SDS011;51027;42.162;24.754;2022-12-08T09:21:21;36.63;;;16.27;;
64615;SDS011;51027;42.162;24.754;2022-12-08T09:23:50;34.80;;;14.70;;
64615;SDS011;51027;42.162;24.754;2022-12-08T09:26:17;41.63;;;15.25;;
64615;SDS011;51027;42.162;24.754;2022-12-08T09:28:46;40.97;;;16.30;;
64615;SDS011;51027;42.162;24.754;2022-12-08T09:31:12;38.72;;;17.67;;
64615;SDS011;51027;42.162;24.754;2022-12-08T09:33:38;38.28;;;17.00;;
64615;SDS011;51027;42.162;24.754;2022-12-08T09:36:04;42.15;;;17.63;;
64615;SDS011;51027;42.162;24.754;2022-12-08T09:38:29;40.58;;;17.25;;
64615;SDS011;51027;42.162;24.754;2022-12-08T09:40:55;38.47;;;16.25;;
64615;SDS011;51027;42.162;24.754;2022-12-08T09:46:06;33.97;;;13.32;;
64615;SDS011;51027;42.162;24.754;2022-12-08T09:48:35;31.58;;;13.45;;
64615;SDS011;51027;42.162;24.754;2022-12-08T09:51:03;28.97;;;12.87;;
64615;SDS011;51027;42.162;24.754;2022-12-08T09:53:38;33.33;;;13.23;;
64615;SDS011;51027;42.162;24.754;2022-12-08T10:01:27;36.22;;;14.35;;
64615;SDS011;51027;42.162;24.754;2022-12-08T10:03:56;35.85;;;14.45;;
64615;SDS011;51027;42.162;24.754;2022-12-08T10:11:41;36.55;;;16.25;;
64615;SDS011;51027;42.162;24.754;2022-12-08T10:17:16;38.03;;;15.93;;
64615;SDS011;51027;42.162;24.754;2022-12-08T10:19:46;33.97;;;14.40;;
64615;SDS011;51027;42.162;24.754;2022-12-08T10:22:20;40.22;;;18.40;;
64615;SDS011;51027;42.162;24.754;2022-12-08T10:24:57;34.47;;;14.95;;
64615;SDS011;51027;42.162;24.754;2022-12-08T10:27:25;36.03;;;14.27;;
64615;SDS011;51027;42.162;24.754;2022-12-08T10:29:51;32.92;;;14.73;;
64615;SDS011;51027;42.162;24.754;2022-12-08T10:32:18;34.05;;;14.48;;
64615;SDS011;51027;42.162;24.754;2022-12-08T10:35:00;39.20;;;15.30;;
64615;SDS011;51027;42.162;24.754;2022-12-08T10:37:31;36.33;;;15.13;;
64615;SDS011;51027;42.162;24.754;2022-12-08T10:42:40;36.35;;;15.00;;
64615;SDS011;51027;42.162;24.754;2022-12-08T10:45:29;35.55;;;13.82;;
64615;SDS011;51027;42.162;24.754;2022-12-08T10:48:17;34.00;;;15.05;;
64615;SDS011;51027;42.162;24.754;2022-12-08T10:50:47;31.80;;;13.02;;
64615;SDS011;51027;42.162;24.754;2022-12-08T10:53:29;38.03;;;15.60;;
64615;SDS011;51027;42.162;24.754;2022-12-08T10:58:24;37.70;;;15.93;;
64615;SDS011;51027;42.162;24.754;2022-12-08T11:00:54;36.45;;;16.98;;
64615;SDS011;51027;42.162;24.754;2022-12-08T11:03:27;32.72;;;14.07;;
64615;SDS011;51027;42.162;24.754;2022-12-08T11:05:55;36.03;;;14.93;;
64615;SDS011;51027;42.162;24.754;2022-12-08T11:08:23;35.85;;;14.88;;
64615;SDS011;51027;42.162;24.754;2022-12-08T11:10:49;36.47;;;16.52;;
64615;SDS011;51027;42.162;24.754;2022-12-08T11:13:18;45.08;;;19.33;;
64615;SDS011;51027;42.162;24.754;2022-12-08T11:15:48;31.45;;;14.00;;
64615;SDS011;51027;42.162;24.754;2022-12-08T11:18:22;39.20;;;16.90;;
64615;SDS011;51027;42.162;24.754;2022-12-08T11:21:10;34.90;;;14.27;;
64615;SDS011;51027;42.162;24.754;2022-12-08T11:23:42;34.92;;;15.25;;
64615;SDS011;51027;42.162;24.754;2022-12-08T11:26:31;37.00;;;17.02;;
64615;SDS011;51027;42.162;24.754;2022-12-08T11:29:00;37.05;;;15.90;;
64615;SDS011;51027;42.162;24.754;2022-12-08T11:31:27;37.13;;;15.65;;
64615;SDS011;51027;42.162;24.754;2022-12-08T11:33:54;33.40;;;14.68;;
64615;SDS011;51027;42.162;24.754;2022-12-08T11:36:21;29.13;;;11.63;;
64615;SDS011;51027;42.162;24.754;2022-12-08T11:38:50;28.33;;;11.15;;
64615;SDS011;51027;42.162;24.754;2022-12-08T11:41:23;31.25;;;12.68;;
64615;SDS011;51027;42.162;24.754;2022-12-08T11:47:04;31.25;;;12.43;;
64615;SDS011;51027;42.162;24.754;2022-12-08T11:49:37;31.35;;;12.10;;
64615;SDS011;51027;42.162;24.754;2022-12-08T11:57:34;30.52;;;12.85;;
64615;SDS011;51027;42.162;24.754;2022-12-08T11:59:59;30.42;;;14.32;;
64615;SDS011;51027;42.162;24.754;2022-12-08T12:02:27;34.13;;;14.35;;
64615;SDS011;51027;42.162;24.754;2022-12-08T12:07:39;35.42;;;15.55;;
64615;SDS011;51027;42.162;24.754;2022-12-08T12:13:21;32.63;;;12.77;;
64615;SDS011;51027;42.162;24.754;2022-12-08T12:18:49;36.15;;;15.52;;
64615;SDS011;51027;42.162;24.754;2022-12-08T12:21:41;35.25;;;14.27;;
64615;SDS011;51027;42.162;24.754;2022-12-08T12:24:09;32.28;;;13.35;;
64615;SDS011;51027;42.162;24.754;2022-12-08T12:27:42;31.42;;;13.90;;
64615;SDS011;51027;42.162;24.754;2022-12-08T12:30:17;38.88;;;16.88;;
64615;SDS011;51027;42.162;24.754;2022-12-08T12:32:44;38.00;;;16.20;;
64615;SDS011;51027;42.162;24.754;2022-12-08T12:35:15;37.05;;;15.88;;
64615;SDS011;51027;42.162;24.754;2022-12-08T12:37:45;37.60;;;16.13;;
64615;SDS011;51027;42.162;24.754;2022-12-08T12:50:43;31.40;;;14.40;;
64615;SDS011;51027;42.162;24.754;2022-12-08T13:03:39;32.05;;;12.98;;
64615;SDS011;51027;42.162;24.754;2022-12-08T13:06:07;33.05;;;13.80;;
64615;SDS011;51027;42.162;24.754;2022-12-08T13:08:38;35.05;;;13.68;;
64615;SDS011;51027;42.162;24.754;2022-12-08T13:11:13;34.63;;;15.32;;
64615;SDS011;51027;42.162;24.754;2022-12-08T13:16:51;36.72;;;14.43;;
64615;SDS011;51027;42.162;24.754;2022-12-08T13:19:19;39.10;;;13.90;;
64615;SDS011;51027;42.162;24.754;2022-12-08T13:21:46;38.58;;;14.52;;
64615;SDS011;51027;42.162;24.754;2022-12-08T13:24:25;36.72;;;14.55;;
64615;SDS011;51027;42.162;24.754;2022-12-08T13:29:27;34.15;;;14.13;;
64615;SDS011;51027;42.162;24.754;2022-12-08T13:31:56;34.50;;;13.35;;
64615;SDS011;51027;42.162;24.754;2022-12-08T13:42:47;31.70;;;12.57;;
64615;SDS011;51027;42.162;24.754;2022-12-08T13:47:39;31.65;;;12.45;;
64615;SDS011;51027;42.162;24.754;2022-12-08T13:52:35;33.47;;;13.63;;
64615;SDS011;51027;42.162;24.754;2022-12-08T13:55:05;33.83;;;12.70;;
64615;SDS011;51027;42.162;24.754;2022-12-08T13:57:41;34.63;;;13.20;;
64615;SDS011;51027;42.162;24.754;2022-12-08T14:00:13;31.73;;;12.32;;
64615;SDS011;51027;42.162;24.754;2022-12-08T14:02:42;33.47;;;13.07;;
64615;SDS011;51027;42.162;24.754;2022-12-08T14:05:10;34.67;;;13.65;;
64615;SDS011;51027;42.162;24.754;2022-12-08T14:07:36;33.13;;;13.20;;
64615;SDS011;51027;42.162;24.754;2022-12-08T14:10:07;32.08;;;12.15;;
64615;SDS011;51027;42.162;24.754;2022-12-08T14:12:40;36.20;;;13.65;;
64615;SDS011;51027;42.162;24.754;2022-12-08T14:15:12;34.40;;;13.05;;
64615;SDS011;51027;42.162;24.754;2022-12-08T14:17:39;29.40;;;12.00;;
64615;SDS011;51027;42.162;24.754;2022-12-08T14:22:37;33.78;;;12.15;;
64615;SDS011;51027;42.162;24.754;2022-12-08T14:25:06;31.83;;;12.90;;
64615;SDS011;51027;42.162;24.754;2022-12-08T14:27:35;31.50;;;12.98;;
64615;SDS011;51027;42.162;24.754;2022-12-08T14:32:36;31.73;;;12.95;;
64615;SDS011;51027;42.162;24.754;2022-12-08T14:35:23;35.80;;;13.07;;
64615;SDS011;51027;42.162;24.754;2022-12-08T14:37:55;34.22;;;14.05;;
64615;SDS011;51027;42.162;24.754;2022-12-08T14:45:31;30.17;;;12.55;;
64615;SDS011;51027;42.162;24.754;2022-12-08T14:48:19;32.05;;;14.00;;
64615;SDS011;51027;42.162;24.754;2022-12-08T14:50:56;35.85;;;16.48;;
64615;SDS011;51027;42.162;24.754;2022-12-08T14:53:23;38.13;;;15.95;;
64615;SDS011;51027;42.162;24.754;2022-12-08T14:55:49;37.85;;;13.73;;
64615;SDS011;51027;42.162;24.754;2022-12-08T14:58:16;34.65;;;14.70;;
64615;SDS011;51027;42.162;24.754;2022-12-08T15:00:45;36.67;;;14.93;;
64615;SDS011;51027;42.162;24.754;2022-12-08T15:03:13;32.65;;;14.45;;
64615;SDS011;51027;42.162;24.754;2022-12-08T15:05:41;36.78;;;16.20;;
64615;SDS011;51027;42.162;24.754;2022-12-08T15:08:08;32.47;;;14.45;;
64615;SDS011;51027;42.162;24.754;2022-12-08T15:10:36;33.35;;;13.07;;
64615;SDS011;51027;42.162;24.754;2022-12-08T15:15:51;34.65;;;14.43;;
64615;SDS011;51027;42.162;24.754;2022-12-08T15:21:29;35.80;;;15.95;;
64615;SDS011;51027;42.162;24.754;2022-12-08T15:24:00;36.10;;;15.32;;
64615;SDS011;51027;42.162;24.754;2022-12-08T15:26:26;36.90;;;14.82;;
64615;SDS011;51027;42.162;24.754;2022-12-08T15:28:52;38.53;;;16.10;;
64615;SDS011;51027;42.162;24.754;2022-12-08T15:31:19;34.75;;;15.30;;
64615;SDS011;51027;42.162;24.754;2022-12-08T15:33:44;37.03;;;15.07;;
64615;SDS011;51027;42.162;24.754;2022-12-08T15:36:10;34.95;;;14.50;;
64615;SDS011;51027;42.162;24.754;2022-12-08T15:38:36;40.40;;;16.73;;
64615;SDS011;51027;42.162;24.754;2022-12-08T15:41:01;37.65;;;16.52;;
64615;SDS011;51027;42.162;24.754;2022-12-08T15:43:27;46.53;;;17.40;;
64615;SDS011;51027;42.162;24.754;2022-12-08T15:45:55;39.13;;;16.73;;
64615;SDS011;51027;42.162;24.754;2022-12-08T15:48:21;43.92;;;17.83;;
64615;SDS011;51027;42.162;24.754;2022-12-08T15:50:49;39.05;;;16.77;;
64615;SDS011;51027;42.162;24.754;2022-12-08T15:53:14;39.55;;;17.77;;
64615;SDS011;51027;42.162;24.754;2022-12-08T15:55:41;43.78;;;19.60;;
64615;SDS011;51027;42.162;24.754;2022-12-08T15:58:09;41.67;;;18.25;;
64615;SDS011;51027;42.162;24.754;2022-12-08T16:00:42;48.58;;;18.85;;
64615;SDS011;51027;42.162;24.754;2022-12-08T16:03:12;39.55;;;18.77;;
64615;SDS011;51027;42.162;24.754;2022-12-08T16:05:47;38.42;;;16.40;;
64615;SDS011;51027;42.162;24.754;2022-12-08T16:08:13;45.30;;;18.15;;
64615;SDS011;51027;42.162;24.754;2022-12-08T16:10:40;39.97;;;18.42;;
64615;SDS011;51027;42.162;24.754;2022-12-08T16:13:27;41.03;;;18.50;;
64615;SDS011;51027;42.162;24.754;2022-12-08T16:16:10;42.55;;;17.73;;
64615;SDS011;51027;42.162;24.754;2022-12-08T16:18:43;40.70;;;17.40;;
64615;SDS011;51027;42.162;24.754;2022-12-08T16:21:09;46.38;;;19.02;;
64615;SDS011;51027;42.162;24.754;2022-12-08T16:23:34;39.78;;;17.45;;
64615;SDS011;51027;42.162;24.754;2022-12-08T16:26:00;44.70;;;17.23;;
64615;SDS011;51027;42.162;24.754;2022-12-08T16:28:26;41.17;;;16.42;;